Time;durP1;ratioP1;P1;durP2;ratioP2;P2;SDS_P1;SDS_P2;PMS_P1;PMS_P2;Temp;Humidity;BMP_temperature;BMP_pressure;BME280_temperature;BME280_humidity;BME280_pressure;Samples;Min_cycle;Max_cycle;Signal;HPM_P1;HPM_P2
2023/12/15 00:01:19;;;;;;;22.80;20.75;;;4.90;99.90;;;;;;5088146;28;20040;-73
2023/12/15 00:03:45;;;;;;;25.20;22.38;;;4.90;99.90;;;;;;5135896;27;20048;-75
2023/12/15 00:06:11;;;;;;;27.50;24.77;;;4.90;99.90;;;;;;5098988;28;20039;-74
2023/12/15 00:08:37;;;;;;;28.38;25.58;;;4.90;99.90;;;;;;5105332;27;20071;-73
2023/12/15 00:11:03;;;;;;;27.98;24.42;;;4.90;99.90;;;;;;5104982;28;20370;-75
2023/12/15 00:13:29;;;;;;;29.70;26.60;;;4.90;99.90;;;;;;5112169;27;20507;-73
2023/12/15 00:15:55;;;;;;;29.90;26.83;;;4.90;99.90;;;;;;5089252;28;20095;-74
2023/12/15 00:18:21;;;;;;;28.70;25.85;;;4.90;99.90;;;;;;5114009;27;20048;-73
2023/12/15 00:20:47;;;;;;;32.58;29.38;;;4.90;99.90;;;;;;5104085;28;20617;-73
2023/12/15 00:23:14;;;;;;;31.05;28.15;;;5.00;99.90;;;;;;5109223;27;20058;-74
2023/12/15 00:25:40;;;;;;;35.33;32.10;;;4.90;99.90;;;;;;5125167;27;20083;-74
2023/12/15 00:28:05;;;;;;;35.47;31.92;;;4.90;99.90;;;;;;5114299;27;20036;-75
2023/12/15 00:30:31;;;;;;;34.42;30.75;;;4.90;99.90;;;;;;5108704;27;20043;-75
2023/12/15 00:32:57;;;;;;;34.22;31.00;;;4.90;99.90;;;;;;5088470;28;20070;-75
2023/12/15 00:35:23;;;;;;;35.42;32.00;;;4.80;99.90;;;;;;5121836;28;20154;-75
2023/12/15 00:37:48;;;;;;;33.33;30.55;;;4.90;99.90;;;;;;5117537;27;20050;-76
2023/12/15 00:40:15;;;;;;;35.75;32.67;;;4.90;99.90;;;;;;5086489;28;20097;-75
2023/12/15 00:42:41;;;;;;;37.40;34.15;;;4.90;99.90;;;;;;5092698;27;20375;-73
2023/12/15 00:45:07;;;;;;;34.55;31.40;;;5.00;99.90;;;;;;5121623;27;20042;-75
2023/12/15 00:47:33;;;;;;;35.05;32.08;;;5.00;99.90;;;;;;5089848;28;20076;-73
2023/12/15 00:49:59;;;;;;;36.10;32.58;;;5.00;99.90;;;;;;5089222;28;20043;-75
2023/12/15 00:52:25;;;;;;;36.40;32.78;;;5.00;99.90;;;;;;5116266;27;20051;-75
2023/12/15 00:54:51;;;;;;;36.45;32.78;;;5.10;99.90;;;;;;5106077;27;20044;-79
2023/12/15 00:57:16;;;;;;;34.60;31.58;;;5.00;99.90;;;;;;5084751;28;20058;-75
2023/12/15 00:59:43;;;;;;;37.67;33.83;;;5.10;99.90;;;;;;5087278;28;20590;-75
2023/12/15 01:02:09;;;;;;;36.00;32.50;;;5.10;99.90;;;;;;5122729;27;20050;-73
2023/12/15 01:04:35;;;;;;;37.60;34.15;;;5.20;99.90;;;;;;5116387;27;20043;-76
2023/12/15 01:07:01;;;;;;;36.75;32.17;;;5.10;99.90;;;;;;5091756;28;20040;-76
2023/12/15 01:09:27;;;;;;;35.20;30.58;;;5.20;99.90;;;;;;5118155;27;20036;-81
2023/12/15 01:11:53;;;;;;;38.40;34.40;;;5.20;99.90;;;;;;5121189;27;20047;-78
2023/12/15 01:14:19;;;;;;;37.40;33.67;;;5.20;99.90;;;;;;5096782;28;20539;-75
2023/12/15 01:16:49;;;;;;;37.03;33.08;;;5.30;99.90;;;;;;5123134;27;20036;-77
2023/12/15 01:19:17;;;;;;;37.55;34.38;;;5.30;99.90;;;;;;5109508;28;20039;-75
2023/12/15 01:21:43;;;;;;;37.78;34.08;;;5.30;99.90;;;;;;5085554;28;20047;-76
2023/12/15 01:24:09;;;;;;;36.30;33.00;;;5.30;99.90;;;;;;5124617;27;20080;-74
2023/12/15 01:26:34;;;;;;;37.13;33.53;;;5.30;99.90;;;;;;5107431;27;20051;-74
2023/12/15 01:29:00;;;;;;;37.03;33.53;;;5.30;99.90;;;;;;5104437;27;20059;-74
2023/12/15 01:31:26;;;;;;;37.13;33.50;;;5.30;99.90;;;;;;5086933;28;20092;-76
2023/12/15 01:33:51;;;;;;;36.28;32.92;;;5.40;99.90;;;;;;5135442;27;20043;-75
2023/12/15 01:36:17;;;;;;;36.20;32.47;;;5.30;99.90;;;;;;5095951;28;20039;-76
2023/12/15 01:38:43;;;;;;;40.35;36.08;;;5.30;99.90;;;;;;5139139;27;20055;-76
2023/12/15 01:41:09;;;;;;;36.47;32.75;;;5.40;99.90;;;;;;5111601;28;20054;-75
2023/12/15 01:43:35;;;;;;;38.10;34.28;;;5.30;99.90;;;;;;5105138;28;20031;-74
2023/12/15 01:46:01;;;;;;;35.95;32.15;;;5.40;99.90;;;;;;5113229;27;20122;-74
2023/12/15 01:48:29;;;;;;;37.35;33.65;;;5.40;99.90;;;;;;5092005;28;20051;-75
2023/12/15 01:50:54;;;;;;;36.08;32.60;;;5.50;99.90;;;;;;5113670;27;20082;-76
2023/12/15 01:53:20;;;;;;;38.97;34.92;;;5.50;99.90;;;;;;5117428;27;20449;-76
2023/12/15 01:55:47;;;;;;;38.65;35.22;;;5.40;99.90;;;;;;5134941;27;20083;-77
2023/12/15 01:58:12;;;;;;;38.88;35.33;;;5.50;99.90;;;;;;5084174;28;20048;-73
2023/12/15 02:00:38;;;;;;;39.55;35.83;;;5.50;99.90;;;;;;5117117;27;20043;-76
2023/12/15 02:03:04;;;;;;;38.65;35.15;;;5.50;99.90;;;;;;5087610;28;20043;-75
2023/12/15 02:05:30;;;;;;;38.05;34.22;;;5.50;99.90;;;;;;5087652;28;20043;-73
2023/12/15 02:07:55;;;;;;;39.85;35.88;;;5.50;99.90;;;;;;5106990;27;20127;-73
2023/12/15 02:10:21;;;;;;;38.28;35.00;;;5.60;99.90;;;;;;5120420;27;20063;-73
2023/12/15 02:12:47;;;;;;;41.42;36.35;;;5.50;99.90;;;;;;5113752;27;20099;-73
2023/12/15 02:15:12;;;;;;;38.88;35.00;;;5.50;99.90;;;;;;5101141;28;20044;-76
2023/12/15 02:17:38;;;;;;;39.72;35.75;;;5.60;99.90;;;;;;5092495;28;20053;-75
2023/12/15 02:20:06;;;;;;;40.65;36.78;;;5.60;99.90;;;;;;5084117;28;20069;-76
2023/12/15 02:22:32;;;;;;;41.92;34.47;;;5.60;99.90;;;;;;5117780;27;20372;-76
2023/12/15 02:24:57;;;;;;;38.30;34.67;;;5.60;99.90;;;;;;5096118;28;20047;-75
2023/12/15 02:27:23;;;;;;;43.45;35.05;;;5.60;99.90;;;;;;5108259;28;20051;-74
2023/12/15 02:29:49;;;;;;;38.70;34.65;;;5.60;99.90;;;;;;5104876;28;20054;-74
2023/12/15 02:32:15;;;;;;;37.90;34.03;;;5.60;99.90;;;;;;5146056;27;20063;-74
2023/12/15 02:34:40;;;;;;;40.00;35.80;;;5.70;99.90;;;;;;5106824;28;20043;-75
2023/12/15 02:37:06;;;;;;;38.58;34.33;;;5.70;99.90;;;;;;5112495;27;20025;-76
2023/12/15 02:39:32;;;;;;;36.95;33.00;;;5.70;99.90;;;;;;5117240;28;20078;-75
2023/12/15 02:41:58;;;;;;;36.53;32.92;;;5.70;99.90;;;;;;5105938;28;20130;-75
2023/12/15 02:44:24;;;;;;;37.55;33.65;;;5.70;99.90;;;;;;5133936;27;20075;-75
2023/12/15 02:46:49;;;;;;;37.67;33.97;;;5.70;99.90;;;;;;5120833;27;20054;-76
2023/12/15 02:49:18;;;;;;;37.60;34.03;;;5.70;99.90;;;;;;5099635;28;20120;-77
2023/12/15 02:51:44;;;;;;;38.00;34.20;;;5.70;99.90;;;;;;5113809;28;20044;-76
2023/12/15 02:54:10;;;;;;;37.63;32.88;;;5.70;99.90;;;;;;5115604;27;20486;-75
2023/12/15 02:56:35;;;;;;;38.38;34.53;;;5.80;99.90;;;;;;5113368;27;20115;-74
2023/12/15 02:59:03;;;;;;;41.05;35.10;;;5.80;99.90;;;;;;5101032;28;20044;-73
2023/12/15 03:01:29;;;;;;;37.40;34.08;;;5.80;99.90;;;;;;5088997;28;20370;-75
2023/12/15 03:03:54;;;;;;;39.13;35.25;;;5.80;99.90;;;;;;5091873;28;20135;-75
2023/12/15 03:06:20;;;;;;;38.72;34.90;;;5.80;99.90;;;;;;5116824;27;20044;-75
2023/12/15 03:08:46;;;;;;;38.15;34.50;;;5.90;99.90;;;;;;5103782;27;20038;-75
2023/12/15 03:11:11;;;;;;;38.70;34.70;;;5.90;99.90;;;;;;5107827;27;20043;-77
2023/12/15 03:13:38;;;;;;;39.30;35.22;;;5.80;99.90;;;;;;5074813;28;20053;-75
2023/12/15 03:16:10;;;;;;;37.42;33.95;;;5.90;99.90;;;;;;5110429;28;20040;-77
2023/12/15 03:18:36;;;;;;;36.83;33.22;;;5.90;99.90;;;;;;5129523;27;20095;-77
2023/12/15 03:21:02;;;;;;;40.10;36.13;;;5.90;99.90;;;;;;5120159;27;20039;-75
2023/12/15 03:23:27;;;;;;;37.45;33.47;;;5.90;99.90;;;;;;5093380;28;20056;-77
2023/12/15 03:25:53;;;;;;;38.10;34.58;;;5.90;99.90;;;;;;5114187;28;20534;-75
2023/12/15 03:28:19;;;;;;;40.20;36.22;;;5.90;99.90;;;;;;5121520;28;20047;-75
2023/12/15 03:30:45;;;;;;;38.42;35.13;;;5.90;99.90;;;;;;5116026;28;20139;-77
2023/12/15 03:33:11;;;;;;;41.13;35.15;;;6.00;99.90;;;;;;5134517;28;20045;-77
2023/12/15 03:35:36;;;;;;;38.45;34.83;;;6.00;99.90;;;;;;5106959;28;20043;-76
2023/12/15 03:38:05;;;;;;;39.47;35.53;;;6.00;99.90;;;;;;5097200;28;20146;-76
2023/12/15 03:40:32;;;;;;;39.88;36.00;;;6.00;99.90;;;;;;5097925;28;20055;-74
2023/12/15 03:42:58;;;;;;;38.92;34.80;;;6.00;99.90;;;;;;5111274;28;20040;-77
2023/12/15 03:45:25;;;;;;;39.33;35.45;;;6.00;99.90;;;;;;5113684;28;20040;-76
2023/12/15 03:47:51;;;;;;;38.30;34.53;;;6.00;99.90;;;;;;5083267;28;20070;-76
2023/12/15 03:50:17;;;;;;;38.20;34.35;;;6.10;99.90;;;;;;5114400;28;20130;-75
2023/12/15 03:52:43;;;;;;;43.50;33.60;;;6.10;99.90;;;;;;5113006;28;20039;-76
2023/12/15 03:55:09;;;;;;;40.55;34.70;;;6.10;99.90;;;;;;5116448;28;20042;-75
2023/12/15 03:57:35;;;;;;;39.40;35.10;;;6.10;99.90;;;;;;5083986;28;20040;-76
2023/12/15 04:00:01;;;;;;;39.08;35.20;;;6.20;99.90;;;;;;5101299;28;20050;-74
2023/12/15 04:02:27;;;;;;;38.83;34.88;;;6.20;99.90;;;;;;5113220;28;20052;-74
2023/12/15 04:04:53;;;;;;;37.28;33.85;;;6.20;99.90;;;;;;5085105;28;20064;-74
2023/12/15 04:07:18;;;;;;;38.95;34.88;;;6.20;99.90;;;;;;5105147;28;20040;-74
2023/12/15 04:09:44;;;;;;;41.15;35.30;;;6.20;99.90;;;;;;5125362;28;20597;-74
2023/12/15 04:12:10;;;;;;;38.17;34.35;;;6.20;99.90;;;;;;5090647;28;20055;-74
2023/12/15 04:14:35;;;;;;;42.88;35.25;;;6.30;99.90;;;;;;5118980;28;20040;-74
2023/12/15 04:17:01;;;;;;;37.85;34.20;;;6.30;99.90;;;;;;5093236;28;20482;-74
2023/12/15 04:19:27;;;;;;;39.10;34.30;;;6.30;99.90;;;;;;5113800;28;20035;-77
2023/12/15 04:21:53;;;;;;;38.97;34.92;;;6.30;99.90;;;;;;5097479;28;20062;-76
2023/12/15 04:24:18;;;;;;;39.92;35.58;;;6.30;99.90;;;;;;5098433;28;20062;-76
2023/12/15 04:26:45;;;;;;;40.28;36.08;;;6.30;99.90;;;;;;5116377;28;20130;-76
2023/12/15 04:29:10;;;;;;;39.97;35.75;;;6.40;99.90;;;;;;5101042;27;20036;-75
2023/12/15 04:31:36;;;;;;;40.63;36.22;;;6.40;99.90;;;;;;5135321;27;20067;-75
2023/12/15 04:34:02;;;;;;;36.70;33.13;;;6.40;99.90;;;;;;5134364;27;20085;-76
2023/12/15 04:36:27;;;;;;;49.55;32.92;;;6.40;99.90;;;;;;5100308;28;20124;-75
2023/12/15 04:38:53;;;;;;;39.10;32.40;;;6.40;99.90;;;;;;5089704;27;20042;-76
2023/12/15 04:41:20;;;;;;;35.80;32.13;;;6.30;99.90;;;;;;5119550;27;20050;-76
2023/12/15 04:43:46;;;;;;;38.00;31.80;;;6.30;99.90;;;;;;5121459;27;20054;-75
2023/12/15 04:46:21;;;;;;;40.20;33.05;;;6.30;99.90;;;;;;5090919;27;20031;-75
2023/12/15 04:48:46;;;;;;;36.15;32.33;;;6.30;99.90;;;;;;5118407;27;20518;-77
2023/12/15 04:51:13;;;;;;;44.83;32.83;;;6.30;99.90;;;;;;5125478;27;20046;-74
2023/12/15 04:53:38;;;;;;;37.47;31.77;;;6.30;99.90;;;;;;5095540;28;20062;-75
2023/12/15 04:56:05;;;;;;;44.70;33.58;;;6.30;99.90;;;;;;5108946;27;20031;-75
2023/12/15 04:58:30;;;;;;;41.70;31.77;;;6.40;99.90;;;;;;5104860;27;20037;-75
2023/12/15 05:00:56;;;;;;;38.33;31.73;;;6.40;99.90;;;;;;5101255;28;20058;-74
2023/12/15 05:03:23;;;;;;;34.28;30.50;;;6.40;99.90;;;;;;5107572;27;20048;-75
2023/12/15 05:05:48;;;;;;;39.05;29.23;;;6.40;99.90;;;;;;5116748;27;20040;-75
2023/12/15 05:08:14;;;;;;;35.00;31.00;;;6.40;99.90;;;;;;5108734;28;20459;-75
2023/12/15 05:10:40;;;;;;;36.08;32.53;;;6.40;99.90;;;;;;5113426;28;20040;-76
2023/12/15 05:13:06;;;;;;;38.08;30.75;;;6.40;99.90;;;;;;5116969;27;20050;-76
2023/12/15 05:15:32;;;;;;;36.60;29.52;;;6.50;99.90;;;;;;5111768;27;20075;-75
2023/12/15 05:17:57;;;;;;;35.63;31.73;;;6.40;99.90;;;;;;5116457;27;20043;-75
2023/12/15 05:20:23;;;;;;;42.40;32.15;;;6.40;99.90;;;;;;5112623;27;20779;-75
2023/12/15 05:22:49;;;;;;;34.38;30.80;;;6.40;99.90;;;;;;5078068;28;20435;-75
2023/12/15 05:25:15;;;;;;;40.92;32.05;;;6.50;99.90;;;;;;5118218;27;20051;-75
2023/12/15 05:27:41;;;;;;;34.88;30.73;;;6.50;99.90;;;;;;5097890;28;20058;-76
2023/12/15 05:30:07;;;;;;;38.75;33.80;;;6.50;99.90;;;;;;5098233;28;20134;-76
2023/12/15 05:32:33;;;;;;;41.72;30.83;;;6.50;99.90;;;;;;5120589;27;20063;-75
2023/12/15 05:34:58;;;;;;;35.67;31.70;;;6.50;99.90;;;;;;5122369;27;20127;-73
2023/12/15 05:37:24;;;;;;;45.75;33.45;;;6.40;99.90;;;;;;5079375;28;20048;-75
2023/12/15 05:39:50;;;;;;;36.80;32.30;;;6.40;99.90;;;;;;5108335;28;20036;-74
2023/12/15 05:42:16;;;;;;;38.72;33.00;;;6.40;99.90;;;;;;5104450;27;20089;-74
2023/12/15 05:44:41;;;;;;;39.25;32.10;;;6.40;99.90;;;;;;5127325;27;20027;-75
2023/12/15 05:47:07;;;;;;;36.03;29.85;;;6.40;99.90;;;;;;5113084;27;20038;-75
2023/12/15 05:49:38;;;;;;;34.05;28.05;;;6.40;99.90;;;;;;5112005;27;20078;-75
2023/12/15 05:52:04;;;;;;;37.47;30.98;;;6.40;99.90;;;;;;5097789;27;20045;-75
2023/12/15 05:54:29;;;;;;;35.22;31.10;;;6.40;99.90;;;;;;5118858;27;20043;-74
2023/12/15 05:56:55;;;;;;;33.65;30.05;;;6.40;99.90;;;;;;5114993;27;20070;-74
2023/12/15 05:59:21;;;;;;;35.53;31.35;;;6.40;99.90;;;;;;5101154;28;20050;-73
2023/12/15 06:01:46;;;;;;;33.72;29.90;;;6.40;99.90;;;;;;5128192;27;20088;-75
2023/12/15 06:04:12;;;;;;;35.80;30.27;;;6.30;99.90;;;;;;5088442;28;20034;-74
2023/12/15 06:06:38;;;;;;;37.05;30.90;;;6.30;99.90;;;;;;5117241;27;20053;-75
2023/12/15 06:09:03;;;;;;;42.40;32.40;;;6.40;99.90;;;;;;5099116;28;20047;-75
2023/12/15 06:11:29;;;;;;;38.03;31.17;;;6.40;99.90;;;;;;5137113;27;20064;-75
2023/12/15 06:13:56;;;;;;;36.22;30.10;;;6.30;99.90;;;;;;5140274;27;20052;-74
2023/12/15 06:16:21;;;;;;;38.80;31.42;;;6.30;99.90;;;;;;5115515;27;20040;-74
2023/12/15 06:18:48;;;;;;;35.75;30.52;;;6.30;99.90;;;;;;5150990;27;20062;-75
2023/12/15 06:21:24;;;;;;;36.58;32.25;;;6.30;99.90;;;;;;5112729;27;20077;-75
2023/12/15 06:23:51;;;;;;;34.00;30.48;;;6.30;99.90;;;;;;5111379;27;20051;-74
2023/12/15 06:26:21;;;;;;;35.90;30.50;;;6.30;99.90;;;;;;5111541;28;20036;-75
2023/12/15 06:28:47;;;;;;;39.20;30.00;;;6.30;99.90;;;;;;5109774;27;20051;-74
2023/12/15 06:31:13;;;;;;;37.92;31.23;;;6.30;99.90;;;;;;5113760;27;20059;-74
2023/12/15 06:33:39;;;;;;;38.00;32.58;;;6.30;99.90;;;;;;5115878;27;20046;-74
2023/12/15 06:36:06;;;;;;;35.90;32.00;;;6.30;99.90;;;;;;5111735;27;20036;-74
2023/12/15 06:38:31;;;;;;;37.90;30.48;;;6.30;99.90;;;;;;5111831;27;20036;-76
2023/12/15 06:40:57;;;;;;;37.85;31.98;;;6.30;99.90;;;;;;5114960;27;20177;-74
2023/12/15 06:43:23;;;;;;;38.15;33.42;;;6.20;99.90;;;;;;5091896;28;20108;-75
2023/12/15 06:45:49;;;;;;;37.58;33.63;;;6.30;99.90;;;;;;5126952;27;20564;-74
2023/12/15 06:48:14;;;;;;;41.88;32.50;;;6.30;99.90;;;;;;5094176;28;20055;-74
2023/12/15 06:50:40;;;;;;;46.22;35.28;;;6.30;99.90;;;;;;5114030;27;20438;-75
2023/12/15 06:53:06;;;;;;;40.70;32.88;;;6.30;99.90;;;;;;5091780;28;20063;-74
2023/12/15 06:55:31;;;;;;;39.03;32.15;;;6.30;99.90;;;;;;5112437;27;20138;-74
2023/12/15 06:57:57;;;;;;;36.83;33.17;;;6.30;99.90;;;;;;5135681;27;20039;-75
2023/12/15 07:00:23;;;;;;;49.10;36.72;;;6.30;99.90;;;;;;5130247;27;20044;-75
2023/12/15 07:02:49;;;;;;;37.53;33.42;;;6.30;99.90;;;;;;5098284;28;20047;-75
2023/12/15 07:05:14;;;;;;;43.30;34.45;;;6.40;99.90;;;;;;5106954;27;20177;-75
2023/12/15 07:07:43;;;;;;;41.53;34.72;;;6.40;99.90;;;;;;5101974;28;20055;-76
2023/12/15 07:10:09;;;;;;;37.88;31.73;;;6.40;99.90;;;;;;5136970;27;20046;-76
2023/12/15 07:12:34;;;;;;;38.08;32.78;;;6.40;99.90;;;;;;5113271;27;20118;-75
2023/12/15 07:15:00;;;;;;;38.33;31.70;;;6.30;99.90;;;;;;5091327;28;20040;-76
2023/12/15 07:17:26;;;;;;;35.22;31.25;;;6.30;99.90;;;;;;5119345;27;20035;-75
2023/12/15 07:19:52;;;;;;;33.35;29.90;;;6.30;99.90;;;;;;5090344;28;20066;-75
2023/12/15 07:22:17;;;;;;;34.08;30.35;;;6.30;99.90;;;;;;5111606;27;20044;-75
2023/12/15 07:24:43;;;;;;;43.13;30.90;;;6.30;99.90;;;;;;5110107;27;20050;-75
2023/12/15 07:27:09;;;;;;;36.15;32.35;;;6.30;99.90;;;;;;5100382;28;20027;-75
2023/12/15 07:29:35;;;;;;;41.40;31.20;;;6.30;99.90;;;;;;5143570;27;20611;-76
2023/12/15 07:32:01;;;;;;;32.13;28.85;;;6.30;99.90;;;;;;5127584;28;20093;-74
2023/12/15 07:34:26;;;;;;;38.88;32.10;;;6.30;99.90;;;;;;5115474;28;20070;-75
2023/12/15 07:36:52;;;;;;;34.15;30.73;;;6.30;99.90;;;;;;5115864;28;20047;-75
2023/12/15 07:39:21;;;;;;;44.10;34.00;;;6.40;99.90;;;;;;5116467;28;20172;-75
2023/12/15 07:41:50;;;;;;;45.70;34.45;;;6.30;99.90;;;;;;5098420;28;20071;-75
2023/12/15 07:44:17;;;;;;;43.50;33.63;;;6.40;99.90;;;;;;5117147;28;20051;-73
2023/12/15 07:46:43;;;;;;;49.97;33.00;;;6.40;99.90;;;;;;5141307;27;20426;-74
2023/12/15 07:49:12;;;;;;;44.92;33.15;;;6.40;99.90;;;;;;5103986;28;20066;-75
2023/12/15 07:51:38;;;;;;;39.63;34.83;;;6.40;99.90;;;;;;5099473;28;20069;-75
2023/12/15 07:54:04;;;;;;;49.40;35.47;;;6.40;99.90;;;;;;5078983;28;20035;-75
2023/12/15 07:56:30;;;;;;;45.30;33.63;;;6.40;99.90;;;;;;5105509;28;20116;-76
2023/12/15 07:58:56;;;;;;;48.88;34.40;;;6.40;99.90;;;;;;5098006;28;20051;-75
2023/12/15 08:01:23;;;;;;;49.42;33.03;;;6.40;99.90;;;;;;5095027;28;20052;-75
2023/12/15 08:03:52;;;;;;;46.33;33.65;;;6.40;99.90;;;;;;5106282;28;20040;-75
2023/12/15 08:06:18;;;;;;;40.70;34.08;;;6.50;99.90;;;;;;5103222;28;20134;-76
2023/12/15 08:08:45;;;;;;;48.38;33.55;;;6.50;99.90;;;;;;5103359;28;20048;-75
2023/12/15 08:11:11;;;;;;;45.20;34.42;;;6.50;99.90;;;;;;5102494;28;20044;-76
2023/12/15 08:13:37;;;;;;;42.53;32.47;;;6.50;99.90;;;;;;5112945;28;20126;-75
2023/12/15 08:16:04;;;;;;;43.30;33.22;;;6.50;99.90;;;;;;5105285;28;20089;-75
2023/12/15 08:18:30;;;;;;;44.05;31.77;;;6.50;99.90;;;;;;5120972;28;20399;-75
2023/12/15 08:20:57;;;;;;;42.78;32.40;;;6.50;99.90;;;;;;5107322;27;20071;-76
2023/12/15 08:23:22;;;;;;;37.13;32.13;;;6.50;99.90;;;;;;5102594;28;20051;-75
2023/12/15 08:25:48;;;;;;;38.25;31.73;;;6.60;99.90;;;;;;5114676;28;20055;-76
2023/12/15 08:28:14;;;;;;;36.15;31.17;;;6.60;99.90;;;;;;5104087;28;20047;-76
2023/12/15 08:30:40;;;;;;;37.42;30.63;;;6.60;99.90;;;;;;5097084;22;20026;-79
2023/12/15 08:33:06;;;;;;;39.03;31.92;;;6.70;99.90;;;;;;5037973;28;20053;-78
2023/12/15 08:35:32;;;;;;;35.38;29.65;;;6.70;99.90;;;;;;5026971;28;20055;-80
2023/12/15 08:37:58;;;;;;;42.90;30.77;;;6.90;99.90;;;;;;5048106;28;20041;-79
2023/12/15 08:40:25;;;;;;;35.03;29.90;;;6.70;99.90;;;;;;5034673;28;20484;-82
2023/12/15 08:42:51;;;;;;;36.53;29.55;;;6.70;99.90;;;;;;5036275;28;20049;-82
2023/12/15 08:45:17;;;;;;;35.08;28.92;;;6.70;99.90;;;;;;5054279;28;20037;-83
2023/12/15 08:47:43;;;;;;;36.92;26.17;;;6.80;99.90;;;;;;5053258;28;20033;-82
2023/12/15 08:50:08;;;;;;;34.70;26.75;;;6.80;99.90;;;;;;5049788;28;20048;-77
2023/12/15 08:52:34;;;;;;;31.63;24.75;;;6.80;99.90;;;;;;5053944;28;20488;-83
2023/12/15 08:55:00;;;;;;;31.50;25.80;;;6.80;99.90;;;;;;5036550;28;20477;-77
2023/12/15 08:57:26;;;;;;;29.55;26.48;;;6.80;99.90;;;;;;5053285;28;20041;-78
2023/12/15 08:59:52;;;;;;;30.98;25.58;;;6.80;99.90;;;;;;5040236;28;20106;-81
2023/12/15 09:02:17;;;;;;;31.85;25.35;;;7.00;99.90;;;;;;5053247;28;20116;-77
2023/12/15 09:04:43;;;;;;;30.63;26.25;;;6.90;99.90;;;;;;5053797;28;20074;-80
2023/12/15 09:07:09;;;;;;;27.88;24.88;;;6.90;99.90;;;;;;5053665;28;20037;-78
2023/12/15 09:09:36;;;;;;;26.83;23.73;;;7.00;99.90;;;;;;5053167;28;20465;-78
2023/12/15 09:12:02;;;;;;;31.23;24.45;;;6.90;99.90;;;;;;5034296;28;20045;-78
2023/12/15 09:14:29;;;;;;;26.58;23.60;;;7.00;99.90;;;;;;5043368;28;20752;-77
2023/12/15 09:16:55;;;;;;;26.48;23.73;;;7.00;99.90;;;;;;5051671;28;20060;-79
2023/12/15 09:19:22;;;;;;;29.50;24.50;;;7.10;99.90;;;;;;5052834;28;20036;-78
2023/12/15 09:21:48;;;;;;;26.63;22.67;;;7.00;99.90;;;;;;5052709;28;20044;-78
2023/12/15 09:24:15;;;;;;;27.48;24.55;;;7.10;99.90;;;;;;5033063;28;20037;-73
2023/12/15 09:26:42;;;;;;;23.45;21.30;;;7.10;99.90;;;;;;5049204;28;20059;-73
2023/12/15 09:29:19;;;;;;;30.23;23.50;;;7.10;99.90;;;;;;5052338;28;20048;-81
2023/12/15 09:31:44;;;;;;;27.10;23.92;;;7.10;99.90;;;;;;5049554;28;20045;-80
2023/12/15 09:34:10;;;;;;;28.27;22.38;;;7.20;99.90;;;;;;5050959;28;20119;-80
2023/12/15 09:36:36;;;;;;;28.00;21.40;;;7.20;99.90;;;;;;5053749;28;20041;-82
2023/12/15 09:39:03;;;;;;;25.48;22.00;;;7.20;99.90;;;;;;5051375;28;20052;-82
2023/12/15 09:41:29;;;;;;;25.58;22.85;;;7.20;99.90;;;;;;5035198;28;20384;-83
2023/12/15 09:43:55;;;;;;;24.48;22.02;;;7.20;99.90;;;;;;5052518;28;20529;-80
2023/12/15 09:46:21;;;;;;;27.23;21.38;;;7.20;99.90;;;;;;5049878;28;20132;-78
2023/12/15 09:48:49;;;;;;;24.00;21.10;;;7.20;99.90;;;;;;5050946;28;20062;-79
2023/12/15 09:51:22;;;;;;;29.98;21.58;;;7.20;99.90;;;;;;5051022;28;20043;-80
2023/12/15 09:53:49;;;;;;;23.35;20.63;;;7.30;99.90;;;;;;5049519;28;20056;-78
2023/12/15 09:56:15;;;;;;;26.70;20.75;;;7.30;99.90;;;;;;5050286;28;20052;-79
2023/12/15 09:58:42;;;;;;;24.92;22.27;;;7.40;99.90;;;;;;5047789;28;20041;-79
2023/12/15 10:01:09;;;;;;;22.77;19.48;;;7.40;99.90;;;;;;5050080;28;20116;-79
2023/12/15 10:03:35;;;;;;;25.90;20.35;;;7.40;99.90;;;;;;5051665;28;20041;-79
2023/12/15 10:06:00;;;;;;;25.77;19.23;;;7.50;99.90;;;;;;5053667;28;20484;-76
2023/12/15 10:08:45;;;;;;;25.52;19.40;;;7.50;99.90;;;;;;5052060;28;20123;-79
2023/12/15 10:11:11;;;;;;;29.20;19.50;;;7.60;99.90;;;;;;5050642;28;20051;-78
2023/12/15 10:13:40;;;;;;;20.83;18.63;;;7.60;99.90;;;;;;5026400;28;20112;-77
2023/12/15 10:16:06;;;;;;;21.92;19.38;;;7.70;99.90;;;;;;5051856;28;20117;-78
2023/12/15 10:18:31;;;;;;;26.75;19.65;;;7.70;99.90;;;;;;5052192;28;20045;-88
2023/12/15 10:20:58;;;;;;;31.27;18.70;;;7.70;99.90;;;;;;5053273;28;20052;-78
2023/12/15 10:23:28;;;;;;;22.35;16.67;;;7.70;99.90;;;;;;5051810;28;20044;-81
2023/12/15 10:25:54;;;;;;;18.77;16.90;;;7.80;99.90;;;;;;5052916;28;20037;-79
2023/12/15 10:28:21;;;;;;;19.90;16.85;;;7.80;99.90;;;;;;5034333;28;20075;-84
2023/12/15 10:30:50;;;;;;;21.02;17.10;;;7.80;99.90;;;;;;5047920;28;20048;-78
2023/12/15 10:33:17;;;;;;;19.98;17.98;;;7.90;99.90;;;;;;5031533;28;20053;-78
2023/12/15 10:35:45;;;;;;;27.17;17.98;;;7.90;99.90;;;;;;5059244;28;20363;-81
2023/12/15 10:38:11;;;;;;;22.00;16.20;;;7.90;99.90;;;;;;5031849;28;20041;-76
2023/12/15 10:40:37;;;;;;;23.27;14.90;;;7.90;99.90;;;;;;5032632;28;20091;-75
2023/12/15 10:43:04;;;;;;;21.67;15.88;;;8.00;99.90;;;;;;5032480;28;20416;-73
2023/12/15 10:45:32;;;;;;;18.58;14.52;;;8.00;99.90;;;;;;5033071;28;20172;-77
2023/12/15 10:48:00;;;;;;;25.83;15.20;;;8.00;99.90;;;;;;5041105;28;20481;-82
2023/12/15 10:55:36;;;;;;;18.50;13.50;;;8.00;99.90;;;;;;5019377;28;20573;-77
2023/12/15 10:58:02;;;;;;;19.42;14.73;;;8.10;99.90;;;;;;5015551;28;20564;-76
2023/12/15 11:00:32;;;;;;;16.80;15.07;;;8.10;99.90;;;;;;4998359;28;20038;-76
2023/12/15 11:02:59;;;;;;;17.70;14.02;;;8.10;99.90;;;;;;4999032;28;20413;-77
2023/12/15 11:05:26;;;;;;;25.02;14.13;;;8.10;99.90;;;;;;5015066;28;20038;-75
2023/12/15 11:07:53;;;;;;;22.23;13.82;;;8.20;99.90;;;;;;5000347;28;20087;-76
2023/12/15 11:10:19;;;;;;;17.13;13.35;;;8.20;99.90;;;;;;5014609;28;20046;-77
2023/12/15 11:12:44;;;;;;;18.33;13.57;;;8.20;99.90;;;;;;5021636;28;20109;-76
2023/12/15 11:15:12;;;;;;;17.05;14.00;;;8.30;99.90;;;;;;5057106;28;20046;-76
2023/12/15 11:17:43;;;;;;;16.00;12.30;;;8.30;99.90;;;;;;4998789;28;20489;-77
2023/12/15 11:20:32;;;;;;;20.42;12.57;;;8.30;99.90;;;;;;5016278;28;20117;-77
2023/12/15 11:23:08;;;;;;;18.95;11.45;;;8.30;99.90;;;;;;5014805;28;20107;-76
2023/12/15 11:25:46;;;;;;;16.52;12.25;;;8.30;99.90;;;;;;5015152;28;20046;-76
2023/12/15 11:28:15;;;;;;;17.20;11.38;;;8.30;99.90;;;;;;5015376;28;20126;-77
2023/12/15 11:30:54;;;;;;;17.10;11.00;;;8.30;99.90;;;;;;5028813;28;20421;-78
2023/12/15 11:33:26;;;;;;;16.05;10.95;;;8.40;99.90;;;;;;5101872;28;20529;-77
2023/12/15 11:35:59;;;;;;;21.55;12.50;;;8.40;99.90;;;;;;5093512;28;20072;-76
2023/12/15 11:38:26;;;;;;;15.27;10.73;;;8.40;99.90;;;;;;4998198;28;20314;-75
2023/12/15 11:40:55;;;;;;;16.90;10.10;;;8.50;99.90;;;;;;5013936;28;20493;-75
2023/12/15 11:43:23;;;;;;;19.02;10.35;;;8.50;99.90;;;;;;4998520;28;20634;-76
2023/12/15 11:45:51;;;;;;;15.05;10.35;;;8.50;99.90;;;;;;5015944;28;20066;-76
2023/12/15 11:48:17;;;;;;;17.10;11.02;;;8.60;99.90;;;;;;5013278;28;20143;-76
2023/12/15 11:50:47;;;;;;;18.27;10.70;;;8.60;99.90;;;;;;5015364;28;20046;-77
2023/12/15 11:53:14;;;;;;;16.50;9.15;;;8.60;99.90;;;;;;5014081;28;20111;-77
2023/12/15 11:55:44;;;;;;;21.33;9.52;;;8.60;99.90;;;;;;5032529;28;20054;-77
2023/12/15 11:58:10;;;;;;;14.57;10.35;;;8.60;99.90;;;;;;5034969;28;20059;-76
2023/12/15 12:00:37;;;;;;;16.33;9.52;;;8.60;99.90;;;;;;5023659;28;20050;-77
2023/12/15 12:03:03;;;;;;;18.65;10.65;;;8.60;99.90;;;;;;4998356;28;20050;-76
2023/12/15 12:05:30;;;;;;;17.30;10.02;;;8.60;99.90;;;;;;5008210;28;20042;-76
2023/12/15 12:07:57;;;;;;;11.27;9.38;;;8.60;99.90;;;;;;5002339;28;20049;-75
2023/12/15 12:10:37;;;;;;;21.20;10.48;;;8.60;99.90;;;;;;5000680;28;20555;-74
2023/12/15 12:13:05;;;;;;;21.17;10.05;;;8.60;99.90;;;;;;5000525;28;20042;-77
2023/12/15 12:15:31;;;;;;;17.92;10.32;;;8.70;99.90;;;;;;5001813;28;20042;-77
2023/12/15 12:17:57;;;;;;;12.98;9.60;;;8.70;99.90;;;;;;4984059;28;20444;-76
2023/12/15 12:20:27;;;;;;;18.30;10.10;;;8.80;99.90;;;;;;5001913;28;20447;-75
2023/12/15 12:22:53;;;;;;;17.10;10.90;;;8.90;99.90;;;;;;5000972;28;20046;-75
2023/12/15 12:25:19;;;;;;;15.68;9.27;;;9.00;99.90;;;;;;4984717;28;20080;-76
2023/12/15 12:27:45;;;;;;;16.67;9.73;;;9.00;99.90;;;;;;5000631;28;20046;-76
2023/12/15 12:30:16;;;;;;;20.05;8.95;;;9.10;99.90;;;;;;5001132;28;20046;-76
2023/12/15 12:32:42;;;;;;;12.77;8.25;;;9.10;99.90;;;;;;5000592;28;20050;-76
2023/12/15 12:35:08;;;;;;;14.82;8.25;;;9.00;99.90;;;;;;5069431;28;20124;-75
2023/12/15 12:37:35;;;;;;;14.77;8.48;;;8.90;99.90;;;;;;5000902;28;20510;-76
2023/12/15 12:40:04;;;;;;;13.57;8.52;;;8.70;99.90;;;;;;5000228;28;20620;-77